sensor_id;sensor_type;location;lat;lon;timestamp;P1;durP1;ratioP1;P2;durP2;ratioP2
5117;SDS011;2578;51.622;7.046;2022-10-01T00:00:18;12.67;;;10.53;;
5117;SDS011;2578;51.622;7.046;2022-10-01T00:02:44;11.30;;;9.93;;
5117;SDS011;2578;51.622;7.046;2022-10-01T00:05:11;11.40;;;10.20;;
5117;SDS011;2578;51.622;7.046;2022-10-01T00:07:40;12.30;;;10.40;;
5117;SDS011;2578;51.622;7.046;2022-10-01T00:10:08;11.03;;;9.70;;
5117;SDS011;2578;51.622;7.046;2022-10-01T00:12:35;11.90;;;10.20;;
5117;SDS011;2578;51.622;7.046;2022-10-01T00:15:02;12.60;;;11.17;;
5117;SDS011;2578;51.622;7.046;2022-10-01T00:17:33;11.03;;;9.63;;
5117;SDS011;2578;51.622;7.046;2022-10-01T00:20:02;10.77;;;9.20;;
5117;SDS011;2578;51.622;7.046;2022-10-01T00:22:29;11.30;;;9.03;;
5117;SDS011;2578;51.622;7.046;2022-10-01T00:24:56;9.70;;;7.30;;
5117;SDS011;2578;51.622;7.046;2022-10-01T00:27:23;9.97;;;7.70;;
5117;SDS011;2578;51.622;7.046;2022-10-01T00:29:49;9.60;;;6.93;;
5117;SDS011;2578;51.622;7.046;2022-10-01T00:32:15;9.07;;;6.00;;
5117;SDS011;2578;51.622;7.046;2022-10-01T00:34:41;8.90;;;5.60;;
5117;SDS011;2578;51.622;7.046;2022-10-01T00:37:07;11.33;;;7.60;;
5117;SDS011;2578;51.622;7.046;2022-10-01T00:39:35;9.80;;;6.83;;
5117;SDS011;2578;51.622;7.046;2022-10-01T00:42:01;9.70;;;6.90;;
5117;SDS011;2578;51.622;7.046;2022-10-01T00:44:42;19.10;;;7.13;;
5117;SDS011;2578;51.622;7.046;2022-10-01T00:49:47;9.20;;;5.13;;
5117;SDS011;2578;51.622;7.046;2022-10-01T00:52:16;9.60;;;5.10;;
5117;SDS011;2578;51.622;7.046;2022-10-01T00:54:52;11.30;;;5.93;;
5117;SDS011;2578;51.622;7.046;2022-10-01T00:57:22;10.97;;;6.37;;
5117;SDS011;2578;51.622;7.046;2022-10-01T00:59:50;9.20;;;5.10;;
5117;SDS011;2578;51.622;7.046;2022-10-01T01:02:18;9.80;;;5.57;;
5117;SDS011;2578;51.622;7.046;2022-10-01T01:04:44;11.77;;;5.80;;
5117;SDS011;2578;51.622;7.046;2022-10-01T01:07:10;8.80;;;4.60;;
5117;SDS011;2578;51.622;7.046;2022-10-01T01:09:36;11.30;;;6.13;;
5117;SDS011;2578;51.622;7.046;2022-10-01T01:12:27;9.10;;;4.90;;
5117;SDS011;2578;51.622;7.046;2022-10-01T01:17:32;10.53;;;7.17;;
5117;SDS011;2578;51.622;7.046;2022-10-01T01:25:48;9.20;;;5.70;;
5117;SDS011;2578;51.622;7.046;2022-10-01T01:28:38;10.83;;;6.33;;
5117;SDS011;2578;51.622;7.046;2022-10-01T01:31:18;16.23;;;12.23;;
5117;SDS011;2578;51.622;7.046;2022-10-01T01:33:52;11.20;;;7.60;;
5117;SDS011;2578;51.622;7.046;2022-10-01T01:36:21;22.20;;;7.23;;
5117;SDS011;2578;51.622;7.046;2022-10-01T01:38:56;10.53;;;6.17;;
5117;SDS011;2578;51.622;7.046;2022-10-01T01:41:27;10.40;;;7.37;;
5117;SDS011;2578;51.622;7.046;2022-10-01T01:44:00;9.47;;;6.63;;
5117;SDS011;2578;51.622;7.046;2022-10-01T01:46:29;9.97;;;6.70;;
5117;SDS011;2578;51.622;7.046;2022-10-01T01:48:58;9.23;;;5.40;;
5117;SDS011;2578;51.622;7.046;2022-10-01T01:51:47;9.50;;;5.93;;
5117;SDS011;2578;51.622;7.046;2022-10-01T01:54:22;9.73;;;5.40;;
5117;SDS011;2578;51.622;7.046;2022-10-01T01:56:49;13.23;;;8.90;;
5117;SDS011;2578;51.622;7.046;2022-10-01T01:59:16;9.70;;;6.30;;
5117;SDS011;2578;51.622;7.046;2022-10-01T02:01:44;9.10;;;5.50;;
5117;SDS011;2578;51.622;7.046;2022-10-01T02:15:05;9.83;;;7.37;;
5117;SDS011;2578;51.622;7.046;2022-10-01T02:17:46;10.97;;;8.80;;
5117;SDS011;2578;51.622;7.046;2022-10-01T02:20:42;12.23;;;9.90;;
5117;SDS011;2578;51.622;7.046;2022-10-01T02:23:15;15.70;;;10.33;;
5117;SDS011;2578;51.622;7.046;2022-10-01T02:25:49;11.67;;;9.37;;
5117;SDS011;2578;51.622;7.046;2022-10-01T02:28:21;12.27;;;10.33;;
5117;SDS011;2578;51.622;7.046;2022-10-01T02:30:48;17.07;;;10.87;;
5117;SDS011;2578;51.622;7.046;2022-10-01T02:33:16;12.20;;;10.70;;
5117;SDS011;2578;51.622;7.046;2022-10-01T02:35:47;13.10;;;11.10;;
5117;SDS011;2578;51.622;7.046;2022-10-01T02:38:14;13.17;;;11.30;;
5117;SDS011;2578;51.622;7.046;2022-10-01T02:40:41;11.40;;;9.70;;
5117;SDS011;2578;51.622;7.046;2022-10-01T02:43:11;14.80;;;12.20;;
5117;SDS011;2578;51.622;7.046;2022-10-01T02:45:42;12.73;;;11.33;;
5117;SDS011;2578;51.622;7.046;2022-10-01T02:48:10;16.97;;;13.83;;
5117;SDS011;2578;51.622;7.046;2022-10-01T02:50:54;16.63;;;15.03;;
5117;SDS011;2578;51.622;7.046;2022-10-01T02:53:36;15.80;;;13.83;;
5117;SDS011;2578;51.622;7.046;2022-10-01T02:56:07;17.83;;;15.93;;
5117;SDS011;2578;51.622;7.046;2022-10-01T02:58:34;19.30;;;16.77;;
5117;SDS011;2578;51.622;7.046;2022-10-01T03:01:00;21.17;;;19.07;;
5117;SDS011;2578;51.622;7.046;2022-10-01T03:03:26;21.90;;;19.70;;
5117;SDS011;2578;51.622;7.046;2022-10-01T03:05:52;22.10;;;19.97;;
5117;SDS011;2578;51.622;7.046;2022-10-01T03:08:17;21.97;;;19.80;;
5117;SDS011;2578;51.622;7.046;2022-10-01T03:10:43;19.00;;;17.10;;
5117;SDS011;2578;51.622;7.046;2022-10-01T03:13:09;19.83;;;17.50;;
5117;SDS011;2578;51.622;7.046;2022-10-01T03:15:35;21.40;;;19.20;;
5117;SDS011;2578;51.622;7.046;2022-10-01T03:18:00;17.67;;;15.97;;
5117;SDS011;2578;51.622;7.046;2022-10-01T03:20:26;15.90;;;14.40;;
5117;SDS011;2578;51.622;7.046;2022-10-01T03:22:52;15.60;;;14.20;;
5117;SDS011;2578;51.622;7.046;2022-10-01T03:25:17;17.30;;;15.70;;
5117;SDS011;2578;51.622;7.046;2022-10-01T03:27:43;20.20;;;18.30;;
5117;SDS011;2578;51.622;7.046;2022-10-01T03:30:10;21.10;;;18.70;;
5117;SDS011;2578;51.622;7.046;2022-10-01T03:32:36;20.30;;;18.33;;
5117;SDS011;2578;51.622;7.046;2022-10-01T03:35:01;21.13;;;19.13;;
5117;SDS011;2578;51.622;7.046;2022-10-01T03:37:27;19.90;;;18.10;;
5117;SDS011;2578;51.622;7.046;2022-10-01T03:39:53;20.13;;;18.27;;
5117;SDS011;2578;51.622;7.046;2022-10-01T03:42:18;21.30;;;19.30;;
5117;SDS011;2578;51.622;7.046;2022-10-01T03:44:44;21.57;;;19.47;;
5117;SDS011;2578;51.622;7.046;2022-10-01T03:47:09;18.10;;;16.50;;
5117;SDS011;2578;51.622;7.046;2022-10-01T03:49:35;19.33;;;17.60;;
5117;SDS011;2578;51.622;7.046;2022-10-01T03:52:02;20.27;;;18.37;;
5117;SDS011;2578;51.622;7.046;2022-10-01T03:54:30;20.63;;;18.63;;
5117;SDS011;2578;51.622;7.046;2022-10-01T03:56:55;18.60;;;17.00;;
5117;SDS011;2578;51.622;7.046;2022-10-01T03:59:21;20.40;;;18.23;;
5117;SDS011;2578;51.622;7.046;2022-10-01T04:01:47;18.60;;;16.80;;
5117;SDS011;2578;51.622;7.046;2022-10-01T04:04:13;16.10;;;14.60;;
5117;SDS011;2578;51.622;7.046;2022-10-01T04:06:39;17.87;;;16.27;;
5117;SDS011;2578;51.622;7.046;2022-10-01T04:09:04;17.93;;;15.40;;
5117;SDS011;2578;51.622;7.046;2022-10-01T04:11:30;18.10;;;16.20;;
5117;SDS011;2578;51.622;7.046;2022-10-01T04:13:56;15.83;;;14.33;;
5117;SDS011;2578;51.622;7.046;2022-10-01T04:16:22;15.70;;;14.20;;
5117;SDS011;2578;51.622;7.046;2022-10-01T04:18:48;17.00;;;15.20;;
5117;SDS011;2578;51.622;7.046;2022-10-01T04:21:14;16.50;;;14.80;;
5117;SDS011;2578;51.622;7.046;2022-10-01T04:23:40;16.57;;;14.80;;
5117;SDS011;2578;51.622;7.046;2022-10-01T04:26:06;15.43;;;13.93;;
5117;SDS011;2578;51.622;7.046;2022-10-01T04:28:32;16.00;;;14.40;;
5117;SDS011;2578;51.622;7.046;2022-10-01T04:30:58;15.70;;;14.20;;
5117;SDS011;2578;51.622;7.046;2022-10-01T04:33:42;18.23;;;16.53;;
5117;SDS011;2578;51.622;7.046;2022-10-01T04:36:07;16.40;;;14.80;;
5117;SDS011;2578;51.622;7.046;2022-10-01T04:38:33;16.10;;;14.60;;
5117;SDS011;2578;51.622;7.046;2022-10-01T04:40:59;14.77;;;13.37;;
5117;SDS011;2578;51.622;7.046;2022-10-01T04:43:24;16.47;;;14.23;;
5117;SDS011;2578;51.622;7.046;2022-10-01T04:45:50;15.63;;;14.13;;
5117;SDS011;2578;51.622;7.046;2022-10-01T04:48:15;15.40;;;13.90;;
5117;SDS011;2578;51.622;7.046;2022-10-01T04:50:41;15.40;;;13.90;;
5117;SDS011;2578;51.622;7.046;2022-10-01T04:53:08;15.50;;;13.90;;
5117;SDS011;2578;51.622;7.046;2022-10-01T04:55:33;15.40;;;13.90;;
5117;SDS011;2578;51.622;7.046;2022-10-01T04:57:59;16.80;;;15.20;;
5117;SDS011;2578;51.622;7.046;2022-10-01T05:00:24;15.60;;;14.10;;
5117;SDS011;2578;51.622;7.046;2022-10-01T05:02:51;15.23;;;13.73;;
5117;SDS011;2578;51.622;7.046;2022-10-01T05:05:17;14.43;;;13.00;;
5117;SDS011;2578;51.622;7.046;2022-10-01T05:07:45;16.90;;;15.13;;
5117;SDS011;2578;51.622;7.046;2022-10-01T05:10:12;15.20;;;13.70;;
5117;SDS011;2578;51.622;7.046;2022-10-01T05:12:40;16.40;;;14.80;;
5117;SDS011;2578;51.622;7.046;2022-10-01T05:15:06;17.43;;;15.57;;
5117;SDS011;2578;51.622;7.046;2022-10-01T05:17:32;17.93;;;16.13;;
5117;SDS011;2578;51.622;7.046;2022-10-01T05:19:58;16.47;;;14.87;;
5117;SDS011;2578;51.622;7.046;2022-10-01T05:22:25;17.17;;;15.57;;
5117;SDS011;2578;51.622;7.046;2022-10-01T05:24:51;17.33;;;15.73;;
5117;SDS011;2578;51.622;7.046;2022-10-01T05:27:17;16.57;;;14.97;;
5117;SDS011;2578;51.622;7.046;2022-10-01T05:29:43;15.93;;;14.43;;
5117;SDS011;2578;51.622;7.046;2022-10-01T05:32:09;16.00;;;14.40;;
5117;SDS011;2578;51.622;7.046;2022-10-01T05:34:36;16.00;;;14.50;;
5117;SDS011;2578;51.622;7.046;2022-10-01T05:37:02;16.80;;;15.20;;
5117;SDS011;2578;51.622;7.046;2022-10-01T05:39:29;16.80;;;15.20;;
5117;SDS011;2578;51.622;7.046;2022-10-01T05:41:58;16.60;;;15.10;;
5117;SDS011;2578;51.622;7.046;2022-10-01T05:44:26;16.50;;;15.00;;
5117;SDS011;2578;51.622;7.046;2022-10-01T05:46:52;16.80;;;15.20;;
5117;SDS011;2578;51.622;7.046;2022-10-01T05:49:18;16.40;;;14.90;;
5117;SDS011;2578;51.622;7.046;2022-10-01T05:51:43;17.20;;;15.60;;
5117;SDS011;2578;51.622;7.046;2022-10-01T05:54:10;15.83;;;14.33;;
5117;SDS011;2578;51.622;7.046;2022-10-01T05:56:36;16.00;;;14.50;;
5117;SDS011;2578;51.622;7.046;2022-10-01T05:59:02;14.80;;;13.37;;
5117;SDS011;2578;51.622;7.046;2022-10-01T06:01:29;15.10;;;13.60;;
5117;SDS011;2578;51.622;7.046;2022-10-01T06:03:56;15.73;;;14.13;;
5117;SDS011;2578;51.622;7.046;2022-10-01T06:06:22;15.10;;;13.60;;
5117;SDS011;2578;51.622;7.046;2022-10-01T06:08:48;15.00;;;13.50;;
5117;SDS011;2578;51.622;7.046;2022-10-01T06:11:14;14.80;;;13.30;;
5117;SDS011;2578;51.622;7.046;2022-10-01T06:13:41;14.87;;;13.47;;
5117;SDS011;2578;51.622;7.046;2022-10-01T06:16:10;15.77;;;14.27;;
5117;SDS011;2578;51.622;7.046;2022-10-01T06:18:37;15.90;;;14.20;;
5117;SDS011;2578;51.622;7.046;2022-10-01T06:21:03;16.30;;;14.70;;
5117;SDS011;2578;51.622;7.046;2022-10-01T06:23:28;15.80;;;14.30;;
5117;SDS011;2578;51.622;7.046;2022-10-01T06:25:54;15.17;;;13.70;;
5117;SDS011;2578;51.622;7.046;2022-10-01T06:28:20;16.03;;;14.53;;
5117;SDS011;2578;51.622;7.046;2022-10-01T06:30:45;16.47;;;14.87;;
5117;SDS011;2578;51.622;7.046;2022-10-01T06:33:12;16.60;;;15.00;;
5117;SDS011;2578;51.622;7.046;2022-10-01T06:35:40;17.20;;;15.60;;
5117;SDS011;2578;51.622;7.046;2022-10-01T06:38:07;15.50;;;13.90;;
5117;SDS011;2578;51.622;7.046;2022-10-01T06:40:34;15.93;;;14.40;;
5117;SDS011;2578;51.622;7.046;2022-10-01T06:43:00;16.10;;;14.60;;
5117;SDS011;2578;51.622;7.046;2022-10-01T06:45:29;15.70;;;14.20;;
5117;SDS011;2578;51.622;7.046;2022-10-01T06:47:58;14.93;;;13.50;;
5117;SDS011;2578;51.622;7.046;2022-10-01T06:50:28;15.40;;;13.80;;
5117;SDS011;2578;51.622;7.046;2022-10-01T06:52:58;14.80;;;13.40;;
5117;SDS011;2578;51.622;7.046;2022-10-01T06:55:25;16.10;;;14.60;;
5117;SDS011;2578;51.622;7.046;2022-10-01T06:57:59;16.20;;;14.70;;
5117;SDS011;2578;51.622;7.046;2022-10-01T07:00:28;16.77;;;15.17;;
5117;SDS011;2578;51.622;7.046;2022-10-01T07:02:55;15.97;;;14.47;;
5117;SDS011;2578;51.622;7.046;2022-10-01T07:05:24;16.00;;;14.50;;
5117;SDS011;2578;51.622;7.046;2022-10-01T07:07:50;15.30;;;13.80;;
5117;SDS011;2578;51.622;7.046;2022-10-01T07:10:16;15.30;;;13.80;;
5117;SDS011;2578;51.622;7.046;2022-10-01T07:12:46;15.00;;;13.60;;
5117;SDS011;2578;51.622;7.046;2022-10-01T07:15:16;15.40;;;13.90;;
5117;SDS011;2578;51.622;7.046;2022-10-01T07:17:43;15.87;;;14.27;;
5117;SDS011;2578;51.622;7.046;2022-10-01T07:20:12;14.93;;;13.47;;
5117;SDS011;2578;51.622;7.046;2022-10-01T07:22:39;15.40;;;13.90;;
5117;SDS011;2578;51.622;7.046;2022-10-01T07:25:05;15.60;;;14.10;;
5117;SDS011;2578;51.622;7.046;2022-10-01T07:27:34;14.40;;;12.90;;
5117;SDS011;2578;51.622;7.046;2022-10-01T07:30:00;14.47;;;12.97;;
5117;SDS011;2578;51.622;7.046;2022-10-01T07:32:25;14.30;;;12.87;;
5117;SDS011;2578;51.622;7.046;2022-10-01T07:34:51;13.80;;;12.40;;
5117;SDS011;2578;51.622;7.046;2022-10-01T07:37:17;14.67;;;13.20;;
5117;SDS011;2578;51.622;7.046;2022-10-01T07:39:42;16.53;;;14.83;;
5117;SDS011;2578;51.622;7.046;2022-10-01T07:42:08;13.43;;;11.83;;
5117;SDS011;2578;51.622;7.046;2022-10-01T07:44:34;13.47;;;12.03;;
5117;SDS011;2578;51.622;7.046;2022-10-01T07:47:01;15.53;;;12.80;;
5117;SDS011;2578;51.622;7.046;2022-10-01T07:49:27;12.70;;;11.40;;
5117;SDS011;2578;51.622;7.046;2022-10-01T07:51:53;15.30;;;13.63;;
5117;SDS011;2578;51.622;7.046;2022-10-01T07:54:20;14.90;;;12.33;;
5117;SDS011;2578;51.622;7.046;2022-10-01T07:56:47;15.17;;;13.63;;
5117;SDS011;2578;51.622;7.046;2022-10-01T07:59:14;13.63;;;12.23;;
5117;SDS011;2578;51.622;7.046;2022-10-01T08:01:40;13.63;;;12.23;;
5117;SDS011;2578;51.622;7.046;2022-10-01T08:04:06;15.07;;;13.60;;
5117;SDS011;2578;51.622;7.046;2022-10-01T08:06:51;14.30;;;12.80;;
5117;SDS011;2578;51.622;7.046;2022-10-01T08:09:18;19.70;;;14.00;;
5117;SDS011;2578;51.622;7.046;2022-10-01T08:11:44;14.17;;;12.67;;
5117;SDS011;2578;51.622;7.046;2022-10-01T08:14:12;14.13;;;12.73;;
5117;SDS011;2578;51.622;7.046;2022-10-01T08:16:38;14.30;;;12.90;;
5117;SDS011;2578;51.622;7.046;2022-10-01T08:19:05;16.30;;;14.80;;
5117;SDS011;2578;51.622;7.046;2022-10-01T08:21:33;15.30;;;13.80;;
5117;SDS011;2578;51.622;7.046;2022-10-01T08:24:02;17.10;;;15.03;;
5117;SDS011;2578;51.622;7.046;2022-10-01T08:26:28;15.40;;;13.90;;
5117;SDS011;2578;51.622;7.046;2022-10-01T08:28:54;17.33;;;15.63;;
5117;SDS011;2578;51.622;7.046;2022-10-01T08:31:20;15.07;;;13.57;;
5117;SDS011;2578;51.622;7.046;2022-10-01T08:33:45;16.30;;;14.70;;
5117;SDS011;2578;51.622;7.046;2022-10-01T08:36:11;16.30;;;14.60;;
5117;SDS011;2578;51.622;7.046;2022-10-01T08:38:36;24.67;;;17.63;;
5117;SDS011;2578;51.622;7.046;2022-10-01T08:44:03;18.30;;;16.07;;
5117;SDS011;2578;51.622;7.046;2022-10-01T08:46:32;17.23;;;14.50;;
5117;SDS011;2578;51.622;7.046;2022-10-01T08:49:07;15.90;;;14.30;;
5117;SDS011;2578;51.622;7.046;2022-10-01T08:56:47;16.33;;;14.73;;
5117;SDS011;2578;51.622;7.046;2022-10-01T09:02:09;14.30;;;12.90;;
5117;SDS011;2578;51.622;7.046;2022-10-01T09:04:42;15.27;;;12.37;;
5117;SDS011;2578;51.622;7.046;2022-10-01T09:07:13;14.20;;;12.70;;
5117;SDS011;2578;51.622;7.046;2022-10-01T09:10:03;17.73;;;13.87;;
5117;SDS011;2578;51.622;7.046;2022-10-01T09:12:58;15.07;;;13.23;;
5117;SDS011;2578;51.622;7.046;2022-10-01T09:15:46;14.20;;;12.80;;
5117;SDS011;2578;51.622;7.046;2022-10-01T09:21:01;14.00;;;12.60;;
5117;SDS011;2578;51.622;7.046;2022-10-01T09:24:11;16.20;;;13.33;;
5117;SDS011;2578;51.622;7.046;2022-10-01T09:26:42;14.07;;;12.67;;
5117;SDS011;2578;51.622;7.046;2022-10-01T09:29:13;14.60;;;13.10;;
5117;SDS011;2578;51.622;7.046;2022-10-01T09:31:44;14.17;;;12.77;;
5117;SDS011;2578;51.622;7.046;2022-10-01T09:34:26;14.10;;;12.70;;
5117;SDS011;2578;51.622;7.046;2022-10-01T09:37:13;16.57;;;14.53;;
5117;SDS011;2578;51.622;7.046;2022-10-01T09:39:47;16.30;;;14.80;;
5117;SDS011;2578;51.622;7.046;2022-10-01T09:42:29;14.30;;;12.93;;
5117;SDS011;2578;51.622;7.046;2022-10-01T09:44:55;13.27;;;11.97;;
5117;SDS011;2578;51.622;7.046;2022-10-01T09:47:22;14.90;;;13.40;;
5117;SDS011;2578;51.622;7.046;2022-10-01T09:49:49;12.97;;;11.67;;
5117;SDS011;2578;51.622;7.046;2022-10-01T09:52:23;14.37;;;12.97;;
5117;SDS011;2578;51.622;7.046;2022-10-01T09:54:56;15.57;;;13.97;;
5117;SDS011;2578;51.622;7.046;2022-10-01T09:57:28;16.83;;;13.23;;
5117;SDS011;2578;51.622;7.046;2022-10-01T10:02:44;13.03;;;11.73;;
5117;SDS011;2578;51.622;7.046;2022-10-01T10:05:13;14.40;;;12.90;;
5117;SDS011;2578;51.622;7.046;2022-10-01T10:07:48;13.40;;;12.00;;
5117;SDS011;2578;51.622;7.046;2022-10-01T10:10:33;11.97;;;10.77;;
5117;SDS011;2578;51.622;7.046;2022-10-01T10:15:39;15.40;;;13.80;;
5117;SDS011;2578;51.622;7.046;2022-10-01T10:18:13;14.53;;;13.03;;
5117;SDS011;2578;51.622;7.046;2022-10-01T10:20:43;12.87;;;11.57;;
5117;SDS011;2578;51.622;7.046;2022-10-01T10:25:41;13.70;;;12.40;;
5117;SDS011;2578;51.622;7.046;2022-10-01T10:28:19;11.83;;;10.63;;
5117;SDS011;2578;51.622;7.046;2022-10-01T10:30:47;12.13;;;10.90;;
5117;SDS011;2578;51.622;7.046;2022-10-01T10:33:16;12.70;;;11.10;;
5117;SDS011;2578;51.622;7.046;2022-10-01T10:35:45;11.97;;;10.67;;
5117;SDS011;2578;51.622;7.046;2022-10-01T10:38:24;13.70;;;12.40;;
5117;SDS011;2578;51.622;7.046;2022-10-01T10:40:54;15.40;;;13.90;;
5117;SDS011;2578;51.622;7.046;2022-10-01T10:43:20;15.20;;;13.70;;
5117;SDS011;2578;51.622;7.046;2022-10-01T10:45:52;17.10;;;15.30;;
5117;SDS011;2578;51.622;7.046;2022-10-01T10:48:20;16.70;;;14.90;;
5117;SDS011;2578;51.622;7.046;2022-10-01T10:50:48;18.30;;;16.40;;
5117;SDS011;2578;51.622;7.046;2022-10-01T10:53:18;16.37;;;14.67;;
5117;SDS011;2578;51.622;7.046;2022-10-01T10:55:52;19.10;;;16.60;;
5117;SDS011;2578;51.622;7.046;2022-10-01T10:58:22;17.50;;;15.70;;
5117;SDS011;2578;51.622;7.046;2022-10-01T11:00:49;16.80;;;15.10;;
5117;SDS011;2578;51.622;7.046;2022-10-01T11:03:16;19.37;;;13.50;;
5117;SDS011;2578;51.622;7.046;2022-10-01T11:05:45;17.53;;;15.73;;
5117;SDS011;2578;51.622;7.046;2022-10-01T11:08:18;17.53;;;15.77;;
5117;SDS011;2578;51.622;7.046;2022-10-01T11:30:09;10.93;;;9.37;;
5117;SDS011;2578;51.622;7.046;2022-10-01T11:38:18;13.50;;;11.10;;
5117;SDS011;2578;51.622;7.046;2022-10-01T11:43:47;10.93;;;9.33;;
5117;SDS011;2578;51.622;7.046;2022-10-01T11:46:20;14.40;;;12.17;;
5117;SDS011;2578;51.622;7.046;2022-10-01T11:48:54;12.30;;;11.00;;
5117;SDS011;2578;51.622;7.046;2022-10-01T11:51:46;13.80;;;12.40;;
5117;SDS011;2578;51.622;7.046;2022-10-01T11:54:18;14.73;;;13.23;;
5117;SDS011;2578;51.622;7.046;2022-10-01T11:56:49;14.40;;;13.00;;
5117;SDS011;2578;51.622;7.046;2022-10-01T12:05:15;32.30;;;13.10;;
5117;SDS011;2578;51.622;7.046;2022-10-01T12:07:56;17.03;;;11.43;;
5117;SDS011;2578;51.622;7.046;2022-10-01T12:10:37;30.93;;;11.77;;
5117;SDS011;2578;51.622;7.046;2022-10-01T12:15:43;15.53;;;11.40;;
5117;SDS011;2578;51.622;7.046;2022-10-01T12:20:56;15.93;;;12.43;;
5117;SDS011;2578;51.622;7.046;2022-10-01T12:23:27;21.23;;;13.60;;
5117;SDS011;2578;51.622;7.046;2022-10-01T12:28:45;11.90;;;8.60;;
5117;SDS011;2578;51.622;7.046;2022-10-01T12:31:46;13.43;;;12.03;;
5117;SDS011;2578;51.622;7.046;2022-10-01T12:37:58;13.27;;;11.83;;
5117;SDS011;2578;51.622;7.046;2022-10-01T12:42:40;16.40;;;12.80;;
5117;SDS011;2578;51.622;7.046;2022-10-01T12:53:00;17.23;;;15.63;;
5117;SDS011;2578;51.622;7.046;2022-10-01T13:01:04;16.87;;;15.37;;
5117;SDS011;2578;51.622;7.046;2022-10-01T13:03:48;20.20;;;17.80;;
5117;SDS011;2578;51.622;7.046;2022-10-01T13:12:30;14.47;;;13.07;;
5117;SDS011;2578;51.622;7.046;2022-10-01T13:15:03;22.40;;;12.00;;
5117;SDS011;2578;51.622;7.046;2022-10-01T13:17:39;16.70;;;11.23;;
5117;SDS011;2578;51.622;7.046;2022-10-01T13:20:28;10.93;;;8.50;;
5117;SDS011;2578;51.622;7.046;2022-10-01T13:34:24;9.83;;;7.33;;
5117;SDS011;2578;51.622;7.046;2022-10-01T13:39:54;11.80;;;10.30;;
5117;SDS011;2578;51.622;7.046;2022-10-01T13:44:51;18.20;;;9.80;;
5117;SDS011;2578;51.622;7.046;2022-10-01T13:47:22;14.73;;;10.40;;
5117;SDS011;2578;51.622;7.046;2022-10-01T13:49:56;13.37;;;10.30;;
5117;SDS011;2578;51.622;7.046;2022-10-01T13:52:30;20.43;;;10.10;;
5117;SDS011;2578;51.622;7.046;2022-10-01T13:54:57;12.47;;;10.93;;
5117;SDS011;2578;51.622;7.046;2022-10-01T13:57:28;20.60;;;11.73;;
5117;SDS011;2578;51.622;7.046;2022-10-01T14:00:22;14.23;;;10.63;;
5117;SDS011;2578;51.622;7.046;2022-10-01T14:02:58;11.63;;;10.43;;
5117;SDS011;2578;51.622;7.046;2022-10-01T14:05:37;11.50;;;10.30;;
5117;SDS011;2578;51.622;7.046;2022-10-01T14:11:24;14.20;;;12.73;;
5117;SDS011;2578;51.622;7.046;2022-10-01T14:14:12;16.00;;;14.40;;
5117;SDS011;2578;51.622;7.046;2022-10-01T14:16:57;17.67;;;15.77;;
5117;SDS011;2578;51.622;7.046;2022-10-01T14:19:24;16.33;;;13.60;;
5117;SDS011;2578;51.622;7.046;2022-10-01T14:22:01;19.00;;;14.03;;
5117;SDS011;2578;51.622;7.046;2022-10-01T14:30:14;12.50;;;11.20;;
5117;SDS011;2578;51.622;7.046;2022-10-01T14:38:29;11.00;;;9.40;;
5117;SDS011;2578;51.622;7.046;2022-10-01T14:40:55;11.60;;;8.20;;
5117;SDS011;2578;51.622;7.046;2022-10-01T14:43:30;13.90;;;9.83;;
5117;SDS011;2578;51.622;7.046;2022-10-01T14:46:05;10.90;;;8.93;;
5117;SDS011;2578;51.622;7.046;2022-10-01T14:48:37;14.03;;;11.23;;
5117;SDS011;2578;51.622;7.046;2022-10-01T14:51:05;11.13;;;9.87;;
5117;SDS011;2578;51.622;7.046;2022-10-01T14:53:32;13.73;;;12.33;;
5117;SDS011;2578;51.622;7.046;2022-10-01T14:56:06;18.53;;;13.27;;
5117;SDS011;2578;51.622;7.046;2022-10-01T14:58:46;15.27;;;13.63;;
5117;SDS011;2578;51.622;7.046;2022-10-01T15:01:21;13.03;;;11.70;;
5117;SDS011;2578;51.622;7.046;2022-10-01T15:03:48;15.70;;;13.50;;
5117;SDS011;2578;51.622;7.046;2022-10-01T15:06:16;15.73;;;14.13;;
5117;SDS011;2578;51.622;7.046;2022-10-01T15:08:44;14.50;;;13.07;;
5117;SDS011;2578;51.622;7.046;2022-10-01T15:11:13;14.60;;;13.20;;
5117;SDS011;2578;51.622;7.046;2022-10-01T15:13:45;16.60;;;14.80;;
5117;SDS011;2578;51.622;7.046;2022-10-01T15:16:13;15.57;;;14.07;;
5117;SDS011;2578;51.622;7.046;2022-10-01T15:18:44;19.00;;;17.00;;
5117;SDS011;2578;51.622;7.046;2022-10-01T15:21:20;17.53;;;15.73;;
5117;SDS011;2578;51.622;7.046;2022-10-01T15:23:50;16.30;;;14.67;;
5117;SDS011;2578;51.622;7.046;2022-10-01T15:26:20;15.30;;;11.77;;
5117;SDS011;2578;51.622;7.046;2022-10-01T15:28:47;16.30;;;11.93;;
5117;SDS011;2578;51.622;7.046;2022-10-01T15:31:14;14.20;;;12.80;;
5117;SDS011;2578;51.622;7.046;2022-10-01T15:33:40;14.30;;;11.90;;
5117;SDS011;2578;51.622;7.046;2022-10-01T15:36:16;20.40;;;13.87;;
5117;SDS011;2578;51.622;7.046;2022-10-01T15:38:43;15.33;;;13.80;;
5117;SDS011;2578;51.622;7.046;2022-10-01T15:41:17;16.43;;;14.83;;
5117;SDS011;2578;51.622;7.046;2022-10-01T15:43:47;14.30;;;12.90;;
5117;SDS011;2578;51.622;7.046;2022-10-01T15:49:09;14.43;;;12.47;;
5117;SDS011;2578;51.622;7.046;2022-10-01T15:51:52;12.40;;;11.10;;
5117;SDS011;2578;51.622;7.046;2022-10-01T15:54:42;16.07;;;12.67;;
5117;SDS011;2578;51.622;7.046;2022-10-01T15:57:13;14.40;;;12.70;;
5117;SDS011;2578;51.622;7.046;2022-10-01T15:59:42;27.67;;;13.93;;
5117;SDS011;2578;51.622;7.046;2022-10-01T16:02:11;15.40;;;13.80;;
5117;SDS011;2578;51.622;7.046;2022-10-01T16:04:42;13.00;;;11.70;;
5117;SDS011;2578;51.622;7.046;2022-10-01T16:07:15;12.87;;;11.60;;
5117;SDS011;2578;51.622;7.046;2022-10-01T16:09:50;13.37;;;12.07;;
5117;SDS011;2578;51.622;7.046;2022-10-01T16:12:19;13.53;;;12.23;;
5117;SDS011;2578;51.622;7.046;2022-10-01T16:14:58;14.67;;;12.23;;
5117;SDS011;2578;51.622;7.046;2022-10-01T16:22:39;11.50;;;10.30;;
5117;SDS011;2578;51.622;7.046;2022-10-01T16:27:46;11.10;;;9.67;;
5117;SDS011;2578;51.622;7.046;2022-10-01T16:30:35;16.33;;;8.70;;
5117;SDS011;2578;51.622;7.046;2022-10-01T16:33:01;10.80;;;8.83;;
5117;SDS011;2578;51.622;7.046;2022-10-01T16:35:29;10.27;;;8.20;;
5117;SDS011;2578;51.622;7.046;2022-10-01T16:37:57;11.60;;;9.67;;
5117;SDS011;2578;51.622;7.046;2022-10-01T16:40:24;10.70;;;8.80;;
5117;SDS011;2578;51.622;7.046;2022-10-01T16:42:51;10.83;;;9.00;;
5117;SDS011;2578;51.622;7.046;2022-10-01T16:45:19;10.57;;;8.67;;
5117;SDS011;2578;51.622;7.046;2022-10-01T16:47:48;13.90;;;8.60;;
5117;SDS011;2578;51.622;7.046;2022-10-01T16:50:14;10.50;;;8.20;;
5117;SDS011;2578;51.622;7.046;2022-10-01T16:52:42;16.73;;;8.60;;
5117;SDS011;2578;51.622;7.046;2022-10-01T16:55:18;10.83;;;7.53;;
5117;SDS011;2578;51.622;7.046;2022-10-01T16:57:49;10.07;;;7.20;;
5117;SDS011;2578;51.622;7.046;2022-10-01T17:00:18;9.83;;;6.80;;
5117;SDS011;2578;51.622;7.046;2022-10-01T17:02:45;12.53;;;8.23;;
5117;SDS011;2578;51.622;7.046;2022-10-01T17:05:15;10.47;;;8.10;;
5117;SDS011;2578;51.622;7.046;2022-10-01T17:07:41;13.23;;;9.00;;
5117;SDS011;2578;51.622;7.046;2022-10-01T17:10:08;10.40;;;7.90;;
5117;SDS011;2578;51.622;7.046;2022-10-01T17:12:35;10.33;;;7.70;;
5117;SDS011;2578;51.622;7.046;2022-10-01T17:15:01;10.60;;;7.67;;
5117;SDS011;2578;51.622;7.046;2022-10-01T17:17:27;13.83;;;9.30;;
5117;SDS011;2578;51.622;7.046;2022-10-01T17:19:52;9.50;;;5.87;;
5117;SDS011;2578;51.622;7.046;2022-10-01T17:22:18;9.27;;;6.30;;
5117;SDS011;2578;51.622;7.046;2022-10-01T17:24:44;10.00;;;7.03;;
5117;SDS011;2578;51.622;7.046;2022-10-01T17:27:09;10.20;;;7.43;;
5117;SDS011;2578;51.622;7.046;2022-10-01T17:29:35;11.17;;;8.43;;
5117;SDS011;2578;51.622;7.046;2022-10-01T17:32:01;9.53;;;6.10;;
5117;SDS011;2578;51.622;7.046;2022-10-01T17:34:26;9.60;;;6.00;;
5117;SDS011;2578;51.622;7.046;2022-10-01T17:36:52;9.70;;;6.20;;
5117;SDS011;2578;51.622;7.046;2022-10-01T17:39:17;13.87;;;7.63;;
5117;SDS011;2578;51.622;7.046;2022-10-01T17:41:43;12.10;;;7.87;;